CheckWX is a tool to help pilots better visualize weather data.  It is not intended as a substitute for an official pre-flight weather briefing.

05:55:19 UTC

KLAA METAR
Lamar Municipal Airport
Lamar, Colorado, USA
Current

1 hour ago

KLAA 240453Z AUTO 29004KT 10SM CLR M10/M14 A3012 RMK AO2 SLP233 T11001139
Observed
Feb-24 @ 04:53 UTC
Wind
  • 290° at 4 KTS
Visibility
10 SM
Flight Rules
VFR
Cloud Levels
  • Clear skies
Temperature
-10°C / 14°F
Dewpoint
-14°C / 7°F
Humidity
73%
Altimeter
30.12" Hg
Pressure
1023.3 hPa
Previous

2 hours ago

KLAA 240353Z AUTO 23004KT 10SM CLR M06/M12 A3008 RMK AO2 SLP216 T10611117
Observed
Feb-24 @ 03:53 UTC
Wind
  • 230° at 4 KTS
Visibility
10 SM
Flight Rules
VFR
Cloud Levels
  • Clear skies
Temperature
-6°C / 21°F
Dewpoint
-12°C / 10°F
Humidity
63%
Altimeter
30.08" Hg
Pressure
1021.6 hPa
Previous

3 hours ago

KLAA 240253Z AUTO 28003KT 10SM CLR M09/M13 A3006 RMK AO2 SLP211 T10891128 53027
Observed
Feb-24 @ 02:53 UTC
Wind
  • 280° at 3 KTS
Visibility
10 SM
Flight Rules
VFR
Cloud Levels
  • Clear skies
Temperature
-9°C / 16°F
Dewpoint
-13°C / 9°F
Humidity
73%
Altimeter
30.06" Hg
Pressure
1021.1 hPa